Latest Weather Observations for Bombala AWS

IDN60801

Issued at 3:32 pm EST Saturday 1 August 2015 (issued every 30 minutes, with the page automatically refreshed every 10 minutes)

About weather observations | Map of weather stations | Latest weather observations for NSW | Other Formats
Station Details ID: 070328 Name: BOMBALA AWS Lat: -37.00 Lon: 149.23 Height: 760.5 m
Data from the previous 72 hours. | See also: Recent months at Bombala AWS
Date/Time
EST
Temp
°C
App
Temp
°C
Dew
Point
Rel
Hum
%
Delta-T
°C
Wind Press
QNH
hPa
Press
MSL
hPa
Rain
since 9 am
mm
Dir
 
Spd
km/h
Gust
km/h
Spd
kts
Gust
kts
01/03:30pm 9.8 5.8 8.2 90 0.8 SW 19 24 10 13 1012.0 1012.8 0.0
01/03:00pm 11.4 7.6 7.5 77 2.0 WSW 17 22 9 12 1011.5 1012.3 0.0
01/02:30pm 11.6 7.3 7.1 74 2.3 WSW 19 26 10 14 1011.3 1012.1 0.0
01/02:00pm 12.3 7.9 7.4 72 2.5 SW 20 30 11 16 1011.0 1011.9 0.0
01/01:30pm 12.8 7.1 6.6 66 3.1 W 26 37 14 20 1010.6 1011.4 0.0
01/01:00pm 12.7 5.2 6.3 65 3.2 WNW 35 48 19 26 1010.2 1011.0 0.0
01/12:30pm 13.6 5.7 6.2 61 3.7 WNW 37 52 20 28 1010.1 1010.9 0.0
01/12:03pm 13.4 2.4 5.1 57 4.0 WNW 52 72 28 39 1010.3 1011.1 0.0
01/12:00pm 13.8 2.6 5.7 58 4.0 WNW 54 72 29 39 1010.3 1011.1 0.0
01/11:51am 13.7 3.6 5.6 58 4.0 WNW 48 69 26 37 1010.2 1011.0 0.0
01/11:30am 14.4 6.2 6.5 59 4.0 WNW 39 54 21 29 1010.4 1011.2 0.0
01/11:00am 13.9 5.5 5.5 57 4.1 WNW 39 52 21 28 1009.9 1010.7 0.0
01/10:30am 13.4 5.4 5.6 59 3.8 WNW 37 48 20 26 1009.4 1010.2 0.0
01/10:00am 12.1 4.9 5.0 62 3.4 NW 32 44 17 24 1009.4 1010.2 0.0
01/09:30am 10.1 3.9 4.5 68 2.6 NNW 26 35 14 19 1010.0 1011.1 0.0
01/09:00am 9.2 6.7 5.0 75 2.0 N 7 22 4 12 1010.7 1011.9 0.0
01/08:30am 7.6 4.2 3.8 77 1.7 N 11 15 6 8 1011.0 1012.2 0.0
01/08:00am 7.8 5.6 3.1 72 2.1 N 4 9 2 5 1011.2 1012.3 0.0
01/07:30am 5.8 3.1 2.8 81 1.3 SE 6 6 3 3 1011.0 1012.2 0.0
01/07:00am 4.6 2.1 1.8 82 1.2 WSW 4 7 2 4 1011.0 1012.2 0.0
01/06:30am 3.2 -0.8 0.8 84 1.0 NW 11 15 6 8 1011.0 1012.2 0.0
01/06:00am 4.4 -0.2 1.6 82 1.2 NNW 15 17 8 9 1011.0 1012.2 0.0
01/05:30am 4.8 -0.5 1.8 81 1.3 NNW 19 20 10 11 1011.5 1012.6 0.0
01/05:00am 5.9 -0.8 1.6 74 1.8 NW 26 32 14 17 1011.4 1012.5 0.0
01/04:30am 6.3 -0.8 1.6 72 2.0 NNW 28 37 15 20 1011.6 1012.7 0.0
01/04:00am 7.3 -2.6 1.6 67 2.4 NW 43 56 23 30 1011.7 1012.8 0.0
01/03:49am 7.3 -1.1 1.4 66 2.5 NW 35 54 19 29 1011.8 1013.0 0.0
01/03:30am 7.0 -0.2 0.5 63 2.7 NW 28 41 15 22 1012.4 1013.6 0.0
01/03:00am 6.7 -2.2 1.0 67 2.4 NNW 37 46 20 25 1012.4 1013.6 0.0
01/02:30am 6.1 -3.4 1.8 74 1.8 NNW 41 50 22 27 1012.6 1013.7 0.0
01/02:00am 5.3 -3.1 1.4 76 1.6 NNW 35 43 19 23 1013.4 1014.6 0.0
01/01:30am 5.1 -1.7 1.0 75 1.7 NNW 26 39 14 21 1013.7 1014.9 0.0
01/01:00am 3.2 -1.6 0.4 82 1.1 NNW 15 24 8 13 1014.4 1015.6 0.0
01/12:30am 2.3 -2.6 -0.3 83 1.0 NNW 15 19 8 10 1015.1 1016.4 0.0
01/12:00am 2.0 -3.0 -1.1 80 1.2 NW 15 20 8 11 1015.6 1016.8 0.0
 
Date/Time
EST
Temp
°C
App
Temp
°C
Dew
Point
Rel
Hum
%
Delta-T
°C
Wind Press
QNH
hPa
Press
MSL
hPa
Rain
since 9 am
mm
Dir
 
Spd
km/h
Gust
km/h
Spd
kts
Gust
kts
31/11:30pm 1.0 -4.0 -0.9 87 0.7 NNW 15 17 8 9 1015.8 1017.0 0.0
31/11:00pm 1.2 -3.6 -0.1 91 0.5 NNW 15 20 8 11 1016.4 1017.7 0.0
31/10:30pm 1.3 -2.6 1.2 99 0.0 NNW 11 17 6 9 1016.6 1017.9 0.0
31/10:00pm 1.1 -2.1 1.0 99 0.0 NW 7 9 4 5 1017.3 1018.6 0.0
31/09:30pm 1.7 -1.7 1.6 99 0.0 NNW 9 13 5 7 1017.4 1018.7 0.0
31/09:00pm 1.6 -1.5 1.5 99 0.0 NNW 7 9 4 5 1017.8 1019.1 0.0
31/08:30pm 2.9 0.2 2.8 99 0.0 N 6 7 3 4 1017.7 1019.0 0.0
31/08:00pm 3.6 1.4 3.5 99 0.0 NNE 4 4 2 2 1017.7 1019.0 0.0
31/07:30pm 3.8 1.3 3.7 99 0.0 NNE 6 9 3 5 1017.6 1018.9 0.0
31/07:00pm 4.5 3.3 4.4 99 0.0 CALM 0 2 0 1 1017.4 1018.7 0.0
31/06:30pm 4.8 1.9 4.7 99 0.0 NE 9 15 5 8 1017.4 1018.7 0.0
31/06:00pm 5.0 2.7 4.7 98 0.1 NE 6 15 3 8 1017.3 1018.6 0.0
31/05:30pm 6.0 3.7 4.8 92 0.5 ENE 6 11 3 6 1017.4 1018.7 0.0
31/05:00pm 7.7 4.8 4.7 81 1.4 ENE 9 15 5 8 1017.4 1018.7 0.0
31/04:30pm 9.5 6.3 4.9 73 2.2 ENE 11 17 6 9 1017.2 1018.4 0.0
31/04:00pm 12.0 8.3 -0.2 43 5.2 N 9 15 5 8 1017.0 1018.2 0.0
31/03:30pm 12.1 8.6 1.1 47 4.8 N 9 13 5 7 1017.4 1018.7 0.0
31/03:00pm 12.1 8.7 2.0 50 4.5 N 9 17 5 9 1017.4 1018.7 0.0
31/02:30pm 11.8 8.5 2.3 52 4.3 NNW 9 17 5 9 1017.4 1018.7 0.0
31/02:00pm 11.3 8.5 3.1 57 3.7 NNW 7 15 4 8 1017.6 1018.9 0.0
31/01:30pm 10.8 7.1 2.6 57 3.7 NNW 11 19 6 10 1017.7 1019.0 0.0
31/01:00pm 10.2 6.6 3.0 61 3.2 N 11 19 6 10 1018.3 1019.5 0.0
31/12:30pm 9.6 6.9 3.6 66 2.7 WNW 7 11 4 6 1018.8 1020.1 0.0
31/12:00pm 9.6 7.0 4.2 69 2.5 WNW 7 13 4 7 1019.1 1020.4 0.0
31/11:30am 8.8 6.3 5.0 77 1.8 SW 7 13 4 7 1019.6 1020.9 0.0
31/11:00am 8.1 5.8 4.7 79 1.6 WSW 6 11 3 6 1019.9 1021.2 0.0
31/10:30am 7.0 3.7 4.7 85 1.1 WSW 11 17 6 9 1020.1 1021.4 0.0
31/10:00am 5.5 0.8 3.0 84 1.1 SW 17 22 9 12 1019.9 1021.2 0.0
31/09:30am 5.5 1.5 2.8 83 1.2 WSW 13 19 7 10 1019.6 1020.9 0.0
31/09:00am 4.9 -0.7 3.4 90 0.7 SW 22 26 12 14 1019.2 1020.5 0.0
31/08:30am 4.5 0.7 3.8 95 0.3 WSW 13 17 7 9 1019.2 1020.5 0.0
31/08:00am 3.5 0.9 3.4 99 0.0 S 6 9 3 5 1019.1 1020.4 0.0
31/07:30am 3.2 0.6 3.1 99 0.0 SSW 6 11 3 6 1018.9 1020.2 0.0
31/07:00am 3.4 1.2 3.3 99 0.0 ESE 4 7 2 4 1018.2 1019.4 0.0
31/06:30am 3.5 0.7 3.2 98 0.1 SE 7 9 4 5 1017.6 1018.9 0.0
31/06:00am 4.2 0.2 2.7 90 0.6 S 13 17 7 9 1017.2 1018.4 0.0
31/05:30am 5.1 3.4 1.9 80 1.3 CALM 0 0 0 0 1016.5 1017.8 0.0
31/05:00am 5.5 3.0 1.8 77 1.6 SSW 4 6 2 3 1016.2 1017.5 0.0
31/04:30am 5.9 0.6 2.0 76 1.7 WNW 19 26 10 14 1015.7 1016.9 0.0
31/04:00am 5.6 1.1 1.9 77 1.6 WNW 15 20 8 11 1015.6 1016.8 0.0
31/03:30am 5.6 0.1 1.9 77 1.6 WNW 20 26 11 14 1015.2 1016.5 0.0
31/03:00am 5.6 -1.1 1.5 75 1.7 WNW 26 33 14 18 1015.0 1016.2 0.0
31/02:30am 5.9 -1.2 1.2 72 2.0 WNW 28 37 15 20 1015.0 1016.2 0.0
31/02:00am 6.0 -1.5 1.0 70 2.1 WNW 30 41 16 22 1015.1 1016.4 0.0
31/01:30am 6.2 -2.6 1.1 70 2.1 WNW 37 48 20 26 1014.7 1015.9 0.0
31/01:00am 5.9 -1.6 1.2 72 2.0 WNW 30 46 16 25 1014.7 1015.9 0.0
31/12:30am 5.9 -3.3 1.2 72 2.0 WNW 39 54 21 29 1014.4 1015.6 0.0
31/12:00am 6.7 -1.4 0.8 66 2.5 WNW 33 54 18 29 1014.3 1015.5 0.0
 
Date/Time
EST
Temp
°C
App
Temp
°C
Dew
Point
Rel
Hum
%
Delta-T
°C
Wind Press
QNH
hPa
Press
MSL
hPa
Rain
since 9 am
mm
Dir
 
Spd
km/h
Gust
km/h
Spd
kts
Gust
kts
30/11:59pm 6.7 -1.4 0.8 66 2.5 WNW 33 54 18 29 1014.3 1015.5 0.0
30/11:30pm 6.2 0.0 -0.1 64 2.5 WNW 22 37 12 20 1014.3 1015.5 0.0
30/11:00pm 6.0 0.1 -0.9 61 2.7 NW 20 30 11 16 1014.4 1015.6 0.0
30/10:30pm 6.4 0.4 -1.2 58 3.0 NW 20 32 11 17 1014.3 1015.5 0.0
30/10:00pm 6.5 -0.2 -1.2 58 3.0 NW 24 37 13 20 1014.3 1015.5 0.0
30/09:30pm 6.9 -0.6 -1.5 55 3.3 NW 28 37 15 20 1014.2 1015.4 0.0
30/09:00pm 7.2 -0.3 -1.7 53 3.5 NW 28 35 15 19 1014.1 1015.3 0.0
30/08:30pm 7.5 1.1 -1.7 52 3.6 NW 22 30 12 16 1014.3 1015.5 0.0
30/08:00pm 7.1 0.7 -1.8 53 3.5 NW 22 28 12 15 1014.0 1015.2 0.0
30/07:30pm 6.5 0.1 -1.4 57 3.1 NW 22 30 12 16 1014.1 1015.3 0.0
30/07:00pm 7.2 0.4 -1.7 53 3.5 NW 24 32 13 17 1014.1 1015.3 0.0
30/06:30pm 6.5 1.5 -0.9 59 2.9 NW 15 20 8 11 1013.8 1015.0 0.0
30/06:00pm 7.0 0.9 -2.2 52 3.6 NW 20 26 11 14 1014.2 1015.4 0.0
30/05:30pm 8.1 2.3 -1.4 51 3.8 NW 19 24 10 13 1014.4 1015.6 0.0
30/05:00pm 7.7 3.0 1.1 63 2.8 NW 15 19 8 10 1014.4 1015.6 0.0
30/04:30pm 8.8 2.3 0.3 55 3.6 NW 24 35 13 19 1014.3 1015.5 0.0
30/04:00pm 9.5 4.0 0.4 53 3.9 NW 19 24 10 13 1014.7 1015.9 0.0
30/03:30pm 10.4 5.6 -0.1 48 4.4 NW 15 20 8 11 1015.2 1016.5 0.0
30/03:00pm 12.3 7.6 0.7 45 5.1 NW 15 19 8 10 1015.2 1016.5 0.0
30/02:30pm 11.6 5.9 -0.9 42 5.2 NW 19 26 10 14 1015.6 1016.8 0.0
30/02:00pm 11.4 6.0 -1.4 41 5.3 NW 17 20 9 11 1016.1 1017.3 0.0
30/01:30pm 10.9 5.8 -1.8 41 5.2 WNW 15 22 8 12 1016.9 1018.1 0.0
30/01:00pm 10.6 4.2 -1.8 42 5.0 NW 22 30 12 16 1017.8 1019.1 0.0
30/12:30pm 10.9 4.4 -2.1 40 5.3 NW 22 30 12 16 1018.4 1019.6 0.0
30/12:00pm 10.6 5.9 0.9 51 4.2 WNW 15 20 8 11 1019.1 1020.4 0.0
30/11:30am 10.2 5.8 0.3 50 4.2 NW 13 22 7 12 1019.8 1021.1 0.0
30/11:00am 9.2 3.4 -0.1 52 3.9 NW 20 28 11 15 1020.0 1021.3 0.0
30/10:30am 7.8 1.7 0.3 59 3.1 NNW 22 28 12 15 1020.1 1021.4 0.0
30/10:00am 6.7 1.0 0.4 64 2.6 NNW 20 28 11 15 1020.5 1021.8 0.0
30/09:30am 5.1 0.0 0.5 72 1.9 NW 17 22 9 12 1021.1 1022.4 0.0
30/09:00am 3.5 0.2 2.2 91 0.5 NNW 9 13 5 7 1021.4 1022.7 0.0
30/08:30am 1.2 -2.7 1.1 99 0.0 NNW 11 15 6 8 1021.7 1023.0 0.0
30/08:00am -0.9 -4.4 -1.0 99 0.0 NNW 7 7 4 4 1021.9 1023.3 0.0
30/07:30am -0.5 -3.7 -0.6 99 0.0 N 6 7 3 4 1022.0 1023.4 0.0
30/07:00am -0.7 -2.8 -0.8 99 0.0 CALM 0 2 0 1 1022.3 1023.7 0.0
30/06:30am -1.6 -5.9 -1.7 99 0.0 NNW 11 13 6 7 1021.9 1023.3 0.0
30/06:00am -0.2 -3.0 -0.3 99 0.0 NNW 4 4 2 2 1022.2 1023.6 0.0
30/05:30am -0.3 -3.1 -0.4 99 0.0 W 4 6 2 3 1022.3 1023.7 0.0
30/05:00am -1.3 -4.2 -1.4 99 0.0 WSW 4 6 2 3 1022.3 1023.7 0.0
30/04:30am -0.2 -3.0 -0.3 99 0.0 S 4 6 2 3 1022.8 1024.1 0.0
30/04:00am -0.7 -3.6 -0.8 99 0.0 NNW 4 9 2 5 1023.0 1024.4 0.0
30/03:30am 0.3 -3.0 0.2 99 0.0 NNW 7 11 4 6 1023.4 1024.8 0.0
30/03:00am 0.5 -2.8 0.4 99 0.0 N 7 9 4 5 1023.6 1025.0 0.0
30/02:30am 1.7 -0.8 1.6 99 0.0 W 4 6 2 3 1024.3 1025.7 0.0
30/02:00am 1.6 -0.9 1.5 99 0.0 WNW 4 6 2 3 1024.6 1026.0 0.0
30/01:30am 2.3 -0.7 2.2 99 0.0 NW 7 7 4 4 1024.6 1026.0 0.0
30/01:00am 2.3 -0.7 2.2 99 0.0 NNW 7 9 4 5 1025.0 1026.4 0.0
30/12:30am 2.6 0.3 2.5 99 0.0 WNW 4 6 2 3 1025.4 1026.8 0.0
30/12:00am 2.8 0.1 2.7 99 0.0 NNW 6 7 3 4 1026.1 1027.5 0.0
 
Date/Time
EST
Temp
°C
App
Temp
°C
Dew
Point
Rel
Hum
%
Delta-T
°C
Wind Press
QNH
hPa
Press
MSL
hPa
Rain
since 9 am
mm
Dir
 
Spd
km/h
Gust
km/h
Spd
kts
Gust
kts
29/11:30pm 2.5 -0.8 2.4 99 0.0 NNW 9 11 5 6 1026.3 1027.8 0.0
29/11:00pm 2.7 0.0 2.6 99 0.0 NW 6 6 3 3 1026.8 1028.2 0.0
29/10:30pm 3.1 0.8 3.0 99 0.0 NW 4 6 2 3 1026.9 1028.3 0.0
29/10:00pm 4.0 1.5 3.9 99 0.0 NNE 6 7 3 4 1026.9 1028.3 0.0
29/09:30pm 3.5 1.7 3.4 99 0.0 NNE 2 4 1 2 1027.5 1029.0 0.0
29/09:00pm 4.0 1.5 3.9 99 0.0 N 6 6 3 3 1027.6 1029.1 0.0
29/08:30pm 4.6 2.1 4.5 99 0.0 NE 7 15 4 8 1027.5 1029.0 0.0
29/08:00pm 4.7 2.2 4.6 99 0.0 ENE 7 13 4 7 1027.8 1029.3 0.0
29/07:30pm 4.9 2.6 4.8 99 0.0 NE 6 7 3 4 1028.1 1029.5 0.0
29/07:00pm 4.9 2.4 4.8 99 0.0 ENE 7 9 4 5 1028.2 1029.6 0.0
29/06:30pm 5.2 3.3 4.8 97 0.2 ESE 4 6 2 3 1028.4 1029.8 0.0
29/06:00pm 6.1 3.4 5.4 95 0.3 ESE 9 15 5 8 1027.8 1029.3 0.0
29/05:30pm 6.3 3.4 4.8 90 0.7 ESE 9 13 5 7 1027.9 1029.4 0.0
29/05:00pm 6.6 4.0 4.1 84 1.1 SE 7 11 4 6 1028.2 1029.6 0.0
29/04:30pm 8.1 4.8 4.5 78 1.7 ESE 11 17 6 9 1027.6 1029.1 0.0
29/04:00pm 10.9 8.4 3.9 62 3.2 ENE 6 17 3 9 1027.6 1029.1 0.0

Other Formats:

Comma delimited format used in spreadsheet applications
http://www.bom.gov.au/fwo/IDN60801/IDN60801.94929.axf

JavaScript Object Notation format (JSON) in row-major order
http://www.bom.gov.au/fwo/IDN60801/IDN60801.94929.json